sensor_id;sensor_type;location;lat;lon;timestamp;P1;durP1;ratioP1;P2;durP2;ratioP2
70757;SDS011;59316;52.964;7.102;2023-10-19T00:02:06;26.92;;;15.15;;
70757;SDS011;59316;52.964;7.102;2023-10-19T00:07:27;28.30;;;15.95;;
70757;SDS011;59316;52.964;7.102;2023-10-19T00:12:48;30.73;;;17.05;;
70757;SDS011;59316;52.964;7.102;2023-10-19T00:18:09;29.30;;;16.08;;
70757;SDS011;59316;52.964;7.102;2023-10-19T00:23:30;30.27;;;16.92;;
70757;SDS011;59316;52.964;7.102;2023-10-19T00:28:52;33.83;;;17.58;;
70757;SDS011;59316;52.964;7.102;2023-10-19T00:34:13;34.70;;;17.38;;
70757;SDS011;59316;52.964;7.102;2023-10-19T00:39:34;31.80;;;17.20;;
70757;SDS011;59316;52.964;7.102;2023-10-19T00:44:55;33.30;;;17.55;;
70757;SDS011;59316;52.964;7.102;2023-10-19T00:50:16;34.05;;;17.55;;
70757;SDS011;59316;52.964;7.102;2023-10-19T00:55:38;36.35;;;17.67;;
70757;SDS011;59316;52.964;7.102;2023-10-19T01:01:01;32.08;;;18.08;;
70757;SDS011;59316;52.964;7.102;2023-10-19T01:06:23;36.97;;;17.60;;
70757;SDS011;59316;52.964;7.102;2023-10-19T01:11:46;34.33;;;17.50;;
70757;SDS011;59316;52.964;7.102;2023-10-19T01:17:07;33.58;;;18.50;;
70757;SDS011;59316;52.964;7.102;2023-10-19T01:22:28;35.22;;;19.67;;
70757;SDS011;59316;52.964;7.102;2023-10-19T01:27:49;36.63;;;19.17;;
70757;SDS011;59316;52.964;7.102;2023-10-19T01:33:11;38.28;;;19.20;;
70757;SDS011;59316;52.964;7.102;2023-10-19T01:38:32;37.67;;;19.40;;
70757;SDS011;59316;52.964;7.102;2023-10-19T01:43:53;37.88;;;20.45;;
70757;SDS011;59316;52.964;7.102;2023-10-19T01:49:15;38.10;;;19.98;;
70757;SDS011;59316;52.964;7.102;2023-10-19T01:54:36;37.42;;;20.35;;
70757;SDS011;59316;52.964;7.102;2023-10-19T01:59:57;32.95;;;18.67;;
70757;SDS011;59316;52.964;7.102;2023-10-19T02:05:18;38.30;;;21.15;;
70757;SDS011;59316;52.964;7.102;2023-10-19T02:10:39;39.58;;;20.42;;
70757;SDS011;59316;52.964;7.102;2023-10-19T02:16:00;43.13;;;20.92;;
70757;SDS011;59316;52.964;7.102;2023-10-19T02:21:21;40.33;;;20.70;;
70757;SDS011;59316;52.964;7.102;2023-10-19T02:26:43;39.78;;;21.30;;
70757;SDS011;59316;52.964;7.102;2023-10-19T02:32:04;38.13;;;19.50;;
70757;SDS011;59316;52.964;7.102;2023-10-19T02:37:25;40.30;;;20.00;;
70757;SDS011;59316;52.964;7.102;2023-10-19T02:42:46;38.38;;;19.45;;
70757;SDS011;59316;52.964;7.102;2023-10-19T02:48:08;39.72;;;20.05;;
70757;SDS011;59316;52.964;7.102;2023-10-19T02:53:29;35.30;;;18.70;;
70757;SDS011;59316;52.964;7.102;2023-10-19T02:58:55;36.45;;;18.75;;
70757;SDS011;59316;52.964;7.102;2023-10-19T03:04:16;36.30;;;19.23;;
70757;SDS011;59316;52.964;7.102;2023-10-19T03:09:38;34.40;;;19.27;;
70757;SDS011;59316;52.964;7.102;2023-10-19T03:14:59;41.13;;;20.05;;
70757;SDS011;59316;52.964;7.102;2023-10-19T03:20:20;34.42;;;18.95;;
70757;SDS011;59316;52.964;7.102;2023-10-19T03:25:41;34.17;;;18.42;;
70757;SDS011;59316;52.964;7.102;2023-10-19T03:31:02;31.13;;;16.92;;
70757;SDS011;59316;52.964;7.102;2023-10-19T03:36:23;30.75;;;16.38;;
70757;SDS011;59316;52.964;7.102;2023-10-19T03:41:45;29.92;;;15.68;;
70757;SDS011;59316;52.964;7.102;2023-10-19T03:47:06;30.13;;;16.27;;
70757;SDS011;59316;52.964;7.102;2023-10-19T03:52:28;26.10;;;15.63;;
70757;SDS011;59316;52.964;7.102;2023-10-19T03:57:49;28.38;;;15.88;;
70757;SDS011;59316;52.964;7.102;2023-10-19T04:03:10;26.33;;;14.43;;
70757;SDS011;59316;52.964;7.102;2023-10-19T04:08:31;24.73;;;13.63;;
70757;SDS011;59316;52.964;7.102;2023-10-19T04:13:52;23.10;;;12.48;;
70757;SDS011;59316;52.964;7.102;2023-10-19T04:19:13;19.92;;;11.63;;
70757;SDS011;59316;52.964;7.102;2023-10-19T04:24:34;20.25;;;12.00;;
70757;SDS011;59316;52.964;7.102;2023-10-19T04:29:55;19.58;;;11.27;;
70757;SDS011;59316;52.964;7.102;2023-10-19T04:35:17;20.67;;;10.20;;
70757;SDS011;59316;52.964;7.102;2023-10-19T04:40:38;21.55;;;11.70;;
70757;SDS011;59316;52.964;7.102;2023-10-19T04:45:59;18.42;;;10.80;;
70757;SDS011;59316;52.964;7.102;2023-10-19T04:51:20;17.73;;;10.30;;
70757;SDS011;59316;52.964;7.102;2023-10-19T04:56:41;18.45;;;10.43;;
70757;SDS011;59316;52.964;7.102;2023-10-19T05:02:02;16.58;;;9.65;;
70757;SDS011;59316;52.964;7.102;2023-10-19T05:07:23;14.25;;;9.10;;
70757;SDS011;59316;52.964;7.102;2023-10-19T05:12:44;16.30;;;9.45;;
70757;SDS011;59316;52.964;7.102;2023-10-19T05:18:05;17.83;;;10.57;;
70757;SDS011;59316;52.964;7.102;2023-10-19T05:23:27;13.55;;;8.75;;
70757;SDS011;59316;52.964;7.102;2023-10-19T05:28:48;15.15;;;8.57;;
70757;SDS011;59316;52.964;7.102;2023-10-19T05:34:09;15.93;;;9.43;;
70757;SDS011;59316;52.964;7.102;2023-10-19T05:39:31;16.88;;;10.02;;
70757;SDS011;59316;52.964;7.102;2023-10-19T05:44:52;13.93;;;8.32;;
70757;SDS011;59316;52.964;7.102;2023-10-19T05:50:13;15.23;;;9.18;;
70757;SDS011;59316;52.964;7.102;2023-10-19T05:55:34;15.48;;;8.88;;
70757;SDS011;59316;52.964;7.102;2023-10-19T06:00:57;12.73;;;7.50;;
70757;SDS011;59316;52.964;7.102;2023-10-19T06:11:40;11.43;;;8.10;;
70757;SDS011;59316;52.964;7.102;2023-10-19T06:17:01;12.68;;;7.88;;
70757;SDS011;59316;52.964;7.102;2023-10-19T06:22:22;11.98;;;8.20;;
70757;SDS011;59316;52.964;7.102;2023-10-19T06:27:44;12.93;;;8.50;;
70757;SDS011;59316;52.964;7.102;2023-10-19T06:33:05;11.95;;;8.07;;
70757;SDS011;59316;52.964;7.102;2023-10-19T06:38:27;11.60;;;7.95;;
70757;SDS011;59316;52.964;7.102;2023-10-19T06:43:48;11.75;;;7.50;;
70757;SDS011;59316;52.964;7.102;2023-10-19T06:49:09;12.25;;;7.82;;
70757;SDS011;59316;52.964;7.102;2023-10-19T06:54:30;12.27;;;7.50;;
70757;SDS011;59316;52.964;7.102;2023-10-19T06:59:51;10.15;;;6.95;;
70757;SDS011;59316;52.964;7.102;2023-10-19T07:05:13;9.73;;;6.97;;
70757;SDS011;59316;52.964;7.102;2023-10-19T07:10:34;9.57;;;6.53;;
70757;SDS011;59316;52.964;7.102;2023-10-19T07:15:56;9.15;;;6.80;;
70757;SDS011;59316;52.964;7.102;2023-10-19T07:21:17;10.80;;;7.13;;
70757;SDS011;59316;52.964;7.102;2023-10-19T07:26:38;8.02;;;6.07;;
70757;SDS011;59316;52.964;7.102;2023-10-19T07:31:59;9.65;;;6.65;;
70757;SDS011;59316;52.964;7.102;2023-10-19T07:37:20;9.02;;;6.18;;
70757;SDS011;59316;52.964;7.102;2023-10-19T07:42:42;9.88;;;6.43;;
70757;SDS011;59316;52.964;7.102;2023-10-19T07:48:03;9.38;;;6.40;;
70757;SDS011;59316;52.964;7.102;2023-10-19T07:53:25;8.48;;;6.13;;
70757;SDS011;59316;52.964;7.102;2023-10-19T07:58:45;9.32;;;6.30;;
70757;SDS011;59316;52.964;7.102;2023-10-19T08:04:06;8.43;;;6.13;;
70757;SDS011;59316;52.964;7.102;2023-10-19T08:09:27;8.88;;;5.55;;
70757;SDS011;59316;52.964;7.102;2023-10-19T08:14:48;8.20;;;5.78;;
70757;SDS011;59316;52.964;7.102;2023-10-19T08:20:10;9.50;;;6.22;;
70757;SDS011;59316;52.964;7.102;2023-10-19T08:25:32;8.90;;;6.05;;
70757;SDS011;59316;52.964;7.102;2023-10-19T08:31:11;9.02;;;6.05;;
70757;SDS011;59316;52.964;7.102;2023-10-19T08:36:32;7.47;;;5.80;;
70757;SDS011;59316;52.964;7.102;2023-10-19T08:41:53;9.38;;;6.15;;
70757;SDS011;59316;52.964;7.102;2023-10-19T08:47:15;9.23;;;6.78;;
70757;SDS011;59316;52.964;7.102;2023-10-19T08:52:36;9.68;;;6.55;;
70757;SDS011;59316;52.964;7.102;2023-10-19T08:57:57;8.95;;;6.60;;
70757;SDS011;59316;52.964;7.102;2023-10-19T09:03:18;9.60;;;6.60;;
70757;SDS011;59316;52.964;7.102;2023-10-19T09:08:40;12.43;;;6.35;;
70757;SDS011;59316;52.964;7.102;2023-10-19T09:14:01;9.63;;;6.32;;
70757;SDS011;59316;52.964;7.102;2023-10-19T09:19:38;10.45;;;6.57;;
70757;SDS011;59316;52.964;7.102;2023-10-19T09:25:00;8.73;;;6.63;;
70757;SDS011;59316;52.964;7.102;2023-10-19T09:30:21;8.68;;;6.53;;
70757;SDS011;59316;52.964;7.102;2023-10-19T09:35:42;9.00;;;6.25;;
70757;SDS011;59316;52.964;7.102;2023-10-19T09:41:11;8.90;;;6.45;;
70757;SDS011;59316;52.964;7.102;2023-10-19T09:46:33;9.33;;;6.40;;
70757;SDS011;59316;52.964;7.102;2023-10-19T09:51:55;10.30;;;6.45;;
70757;SDS011;59316;52.964;7.102;2023-10-19T09:57:24;8.57;;;6.28;;
70757;SDS011;59316;52.964;7.102;2023-10-19T10:02:48;8.55;;;6.53;;
70757;SDS011;59316;52.964;7.102;2023-10-19T10:13:37;7.25;;;5.70;;
70757;SDS011;59316;52.964;7.102;2023-10-19T10:18:59;7.85;;;5.75;;
70757;SDS011;59316;52.964;7.102;2023-10-19T10:24:20;9.32;;;5.68;;
70757;SDS011;59316;52.964;7.102;2023-10-19T10:29:58;7.68;;;5.70;;
70757;SDS011;59316;52.964;7.102;2023-10-19T10:40:59;7.30;;;6.03;;
70757;SDS011;59316;52.964;7.102;2023-10-19T10:46:21;7.78;;;5.22;;
70757;SDS011;59316;52.964;7.102;2023-10-19T10:51:42;7.82;;;5.47;;
70757;SDS011;59316;52.964;7.102;2023-10-19T10:57:03;7.82;;;5.82;;
70757;SDS011;59316;52.964;7.102;2023-10-19T11:02:24;10.13;;;5.97;;
70757;SDS011;59316;52.964;7.102;2023-10-19T11:13:29;9.52;;;6.80;;
70757;SDS011;59316;52.964;7.102;2023-10-19T11:18:50;8.50;;;6.47;;
70757;SDS011;59316;52.964;7.102;2023-10-19T11:24:12;8.07;;;6.30;;
70757;SDS011;59316;52.964;7.102;2023-10-19T11:29:57;6.60;;;5.90;;
70757;SDS011;59316;52.964;7.102;2023-10-19T11:35:19;9.07;;;6.65;;
70757;SDS011;59316;52.964;7.102;2023-10-19T11:40:40;9.10;;;6.78;;
70757;SDS011;59316;52.964;7.102;2023-10-19T11:46:01;10.57;;;7.35;;
70757;SDS011;59316;52.964;7.102;2023-10-19T11:51:22;10.70;;;7.70;;
70757;SDS011;59316;52.964;7.102;2023-10-19T11:56:43;12.45;;;9.30;;
70757;SDS011;59316;52.964;7.102;2023-10-19T12:02:05;11.00;;;8.68;;
70757;SDS011;59316;52.964;7.102;2023-10-19T12:07:26;14.05;;;8.77;;
70757;SDS011;59316;52.964;7.102;2023-10-19T12:12:47;11.05;;;7.80;;
70757;SDS011;59316;52.964;7.102;2023-10-19T12:18:20;10.48;;;7.35;;
70757;SDS011;59316;52.964;7.102;2023-10-19T12:23:42;9.90;;;6.68;;
70757;SDS011;59316;52.964;7.102;2023-10-19T12:29:04;11.23;;;7.75;;
70757;SDS011;59316;52.964;7.102;2023-10-19T12:34:25;10.27;;;6.75;;
70757;SDS011;59316;52.964;7.102;2023-10-19T12:39:46;8.65;;;6.28;;
70757;SDS011;59316;52.964;7.102;2023-10-19T12:45:07;12.80;;;7.57;;
70757;SDS011;59316;52.964;7.102;2023-10-19T12:50:28;11.45;;;7.30;;
70757;SDS011;59316;52.964;7.102;2023-10-19T12:55:49;9.93;;;7.28;;
70757;SDS011;59316;52.964;7.102;2023-10-19T13:01:11;10.77;;;7.65;;
70757;SDS011;59316;52.964;7.102;2023-10-19T13:06:32;9.10;;;5.90;;
70757;SDS011;59316;52.964;7.102;2023-10-19T13:11:53;8.05;;;5.65;;
70757;SDS011;59316;52.964;7.102;2023-10-19T13:17:14;9.32;;;6.85;;
70757;SDS011;59316;52.964;7.102;2023-10-19T13:22:35;9.93;;;6.40;;
70757;SDS011;59316;52.964;7.102;2023-10-19T13:27:56;9.05;;;6.30;;
70757;SDS011;59316;52.964;7.102;2023-10-19T13:33:17;13.95;;;8.35;;
70757;SDS011;59316;52.964;7.102;2023-10-19T13:38:39;13.02;;;8.05;;
70757;SDS011;59316;52.964;7.102;2023-10-19T13:44:00;15.75;;;10.10;;
70757;SDS011;59316;52.964;7.102;2023-10-19T13:49:21;18.17;;;10.00;;
70757;SDS011;59316;52.964;7.102;2023-10-19T13:54:42;17.92;;;10.82;;
70757;SDS011;59316;52.964;7.102;2023-10-19T14:00:05;15.27;;;9.75;;
70757;SDS011;59316;52.964;7.102;2023-10-19T14:05:26;20.25;;;10.13;;
70757;SDS011;59316;52.964;7.102;2023-10-19T14:10:49;15.85;;;10.18;;
70757;SDS011;59316;52.964;7.102;2023-10-19T14:16:10;19.45;;;10.40;;
70757;SDS011;59316;52.964;7.102;2023-10-19T14:21:32;15.82;;;10.43;;
70757;SDS011;59316;52.964;7.102;2023-10-19T14:26:53;19.58;;;10.75;;
70757;SDS011;59316;52.964;7.102;2023-10-19T14:32:14;22.02;;;11.88;;
70757;SDS011;59316;52.964;7.102;2023-10-19T14:37:35;18.20;;;10.85;;
70757;SDS011;59316;52.964;7.102;2023-10-19T14:42:56;22.98;;;11.45;;
70757;SDS011;59316;52.964;7.102;2023-10-19T14:48:17;22.60;;;11.93;;
70757;SDS011;59316;52.964;7.102;2023-10-19T14:53:38;19.98;;;11.75;;
70757;SDS011;59316;52.964;7.102;2023-10-19T14:58:59;21.30;;;12.10;;
70757;SDS011;59316;52.964;7.102;2023-10-19T15:04:20;19.27;;;11.35;;
70757;SDS011;59316;52.964;7.102;2023-10-19T15:09:42;24.77;;;12.45;;
70757;SDS011;59316;52.964;7.102;2023-10-19T15:15:03;26.23;;;13.07;;
70757;SDS011;59316;52.964;7.102;2023-10-19T15:20:25;25.88;;;12.15;;
70757;SDS011;59316;52.964;7.102;2023-10-19T15:25:47;32.10;;;13.13;;
70757;SDS011;59316;52.964;7.102;2023-10-19T15:31:08;26.85;;;13.00;;
70757;SDS011;59316;52.964;7.102;2023-10-19T15:36:28;28.17;;;13.27;;
70757;SDS011;59316;52.964;7.102;2023-10-19T15:41:49;25.83;;;12.35;;
70757;SDS011;59316;52.964;7.102;2023-10-19T15:47:11;27.13;;;12.23;;
70757;SDS011;59316;52.964;7.102;2023-10-19T15:52:33;28.02;;;14.35;;
70757;SDS011;59316;52.964;7.102;2023-10-19T15:57:54;27.42;;;13.27;;
70757;SDS011;59316;52.964;7.102;2023-10-19T16:03:15;28.02;;;13.45;;
70757;SDS011;59316;52.964;7.102;2023-10-19T16:08:36;26.10;;;12.73;;
70757;SDS011;59316;52.964;7.102;2023-10-19T16:13:57;26.70;;;13.05;;
70757;SDS011;59316;52.964;7.102;2023-10-19T16:19:18;24.25;;;12.43;;
70757;SDS011;59316;52.964;7.102;2023-10-19T16:24:42;28.50;;;12.17;;
70757;SDS011;59316;52.964;7.102;2023-10-19T16:30:03;27.77;;;13.63;;
70757;SDS011;59316;52.964;7.102;2023-10-19T16:35:25;25.88;;;12.32;;
70757;SDS011;59316;52.964;7.102;2023-10-19T16:40:46;25.40;;;12.13;;
70757;SDS011;59316;52.964;7.102;2023-10-19T16:46:08;27.48;;;13.43;;
70757;SDS011;59316;52.964;7.102;2023-10-19T16:51:31;26.80;;;13.05;;
70757;SDS011;59316;52.964;7.102;2023-10-19T16:56:52;26.13;;;12.80;;
70757;SDS011;59316;52.964;7.102;2023-10-19T17:02:13;34.58;;;13.65;;
70757;SDS011;59316;52.964;7.102;2023-10-19T17:07:34;34.67;;;14.15;;
70757;SDS011;59316;52.964;7.102;2023-10-19T17:12:55;33.08;;;14.50;;
70757;SDS011;59316;52.964;7.102;2023-10-19T17:18:16;36.40;;;14.55;;
70757;SDS011;59316;52.964;7.102;2023-10-19T17:23:37;36.15;;;14.05;;
70757;SDS011;59316;52.964;7.102;2023-10-19T17:28:58;32.65;;;14.02;;
70757;SDS011;59316;52.964;7.102;2023-10-19T17:34:19;27.48;;;13.70;;
70757;SDS011;59316;52.964;7.102;2023-10-19T17:39:41;31.58;;;14.13;;
70757;SDS011;59316;52.964;7.102;2023-10-19T17:45:02;30.08;;;13.52;;
70757;SDS011;59316;52.964;7.102;2023-10-19T17:50:24;30.27;;;13.55;;
70757;SDS011;59316;52.964;7.102;2023-10-19T17:55:45;31.17;;;14.57;;
70757;SDS011;59316;52.964;7.102;2023-10-19T18:01:07;31.50;;;14.32;;
70757;SDS011;59316;52.964;7.102;2023-10-19T18:06:28;35.78;;;15.48;;
70757;SDS011;59316;52.964;7.102;2023-10-19T18:11:49;38.20;;;16.92;;
70757;SDS011;59316;52.964;7.102;2023-10-19T18:17:10;35.83;;;17.02;;
70757;SDS011;59316;52.964;7.102;2023-10-19T18:22:31;37.03;;;16.02;;
70757;SDS011;59316;52.964;7.102;2023-10-19T18:27:52;40.33;;;17.20;;
70757;SDS011;59316;52.964;7.102;2023-10-19T18:33:14;41.65;;;16.80;;
70757;SDS011;59316;52.964;7.102;2023-10-19T18:38:35;36.25;;;15.60;;
70757;SDS011;59316;52.964;7.102;2023-10-19T18:43:55;38.55;;;16.45;;
70757;SDS011;59316;52.964;7.102;2023-10-19T18:49:17;34.92;;;16.60;;
70757;SDS011;59316;52.964;7.102;2023-10-19T18:54:38;36.15;;;15.48;;
70757;SDS011;59316;52.964;7.102;2023-10-19T18:59:59;41.08;;;16.45;;
70757;SDS011;59316;52.964;7.102;2023-10-19T19:05:20;37.03;;;17.02;;
70757;SDS011;59316;52.964;7.102;2023-10-19T19:10:41;37.88;;;16.77;;
70757;SDS011;59316;52.964;7.102;2023-10-19T19:16:02;35.60;;;16.77;;
70757;SDS011;59316;52.964;7.102;2023-10-19T19:21:23;39.90;;;18.98;;
70757;SDS011;59316;52.964;7.102;2023-10-19T19:26:44;41.45;;;20.17;;
70757;SDS011;59316;52.964;7.102;2023-10-19T19:32:05;44.42;;;19.40;;
70757;SDS011;59316;52.964;7.102;2023-10-19T19:37:26;39.25;;;17.92;;
70757;SDS011;59316;52.964;7.102;2023-10-19T19:42:47;39.13;;;17.85;;
70757;SDS011;59316;52.964;7.102;2023-10-19T19:48:09;37.67;;;18.30;;
70757;SDS011;59316;52.964;7.102;2023-10-19T19:53:29;38.83;;;17.88;;
70757;SDS011;59316;52.964;7.102;2023-10-19T19:58:50;40.15;;;17.67;;
70757;SDS011;59316;52.964;7.102;2023-10-19T20:04:12;39.15;;;17.67;;
70757;SDS011;59316;52.964;7.102;2023-10-19T20:09:33;34.90;;;17.05;;
70757;SDS011;59316;52.964;7.102;2023-10-19T20:14:54;38.90;;;17.30;;
70757;SDS011;59316;52.964;7.102;2023-10-19T20:20:16;34.22;;;17.27;;
70757;SDS011;59316;52.964;7.102;2023-10-19T20:25:37;34.17;;;17.23;;
70757;SDS011;59316;52.964;7.102;2023-10-19T20:30:58;32.60;;;16.65;;
70757;SDS011;59316;52.964;7.102;2023-10-19T20:36:19;34.55;;;17.23;;
70757;SDS011;59316;52.964;7.102;2023-10-19T20:41:40;36.33;;;16.65;;
70757;SDS011;59316;52.964;7.102;2023-10-19T20:47:02;29.42;;;14.35;;
70757;SDS011;59316;52.964;7.102;2023-10-19T20:52:23;32.28;;;15.82;;
70757;SDS011;59316;52.964;7.102;2023-10-19T20:57:45;33.53;;;16.15;;
70757;SDS011;59316;52.964;7.102;2023-10-19T21:03:07;32.05;;;16.08;;
70757;SDS011;59316;52.964;7.102;2023-10-19T21:08:28;31.23;;;15.57;;
70757;SDS011;59316;52.964;7.102;2023-10-19T21:13:48;33.60;;;16.05;;
70757;SDS011;59316;52.964;7.102;2023-10-19T21:19:09;30.77;;;14.45;;
70757;SDS011;59316;52.964;7.102;2023-10-19T21:24:50;30.33;;;13.75;;
70757;SDS011;59316;52.964;7.102;2023-10-19T21:30:12;27.08;;;13.73;;
70757;SDS011;59316;52.964;7.102;2023-10-19T21:35:33;25.85;;;13.73;;
70757;SDS011;59316;52.964;7.102;2023-10-19T21:40:54;29.50;;;13.98;;
70757;SDS011;59316;52.964;7.102;2023-10-19T21:46:16;33.83;;;13.98;;
70757;SDS011;59316;52.964;7.102;2023-10-19T21:51:37;29.73;;;13.95;;
70757;SDS011;59316;52.964;7.102;2023-10-19T21:56:58;30.52;;;13.98;;
70757;SDS011;59316;52.964;7.102;2023-10-19T22:02:19;27.92;;;14.93;;
70757;SDS011;59316;52.964;7.102;2023-10-19T22:07:40;32.75;;;16.30;;
70757;SDS011;59316;52.964;7.102;2023-10-19T22:13:01;38.28;;;17.00;;
70757;SDS011;59316;52.964;7.102;2023-10-19T22:18:22;37.40;;;18.15;;
70757;SDS011;59316;52.964;7.102;2023-10-19T22:23:43;40.97;;;18.85;;
70757;SDS011;59316;52.964;7.102;2023-10-19T22:29:04;42.85;;;19.98;;
70757;SDS011;59316;52.964;7.102;2023-10-19T22:34:25;44.22;;;17.33;;
70757;SDS011;59316;52.964;7.102;2023-10-19T22:39:46;41.55;;;18.52;;
70757;SDS011;59316;52.964;7.102;2023-10-19T22:45:07;42.15;;;17.90;;
70757;SDS011;59316;52.964;7.102;2023-10-19T22:50:28;36.80;;;17.17;;
70757;SDS011;59316;52.964;7.102;2023-10-19T22:55:49;30.83;;;15.98;;
70757;SDS011;59316;52.964;7.102;2023-10-19T23:01:10;32.83;;;15.57;;
70757;SDS011;59316;52.964;7.102;2023-10-19T23:06:32;28.02;;;14.40;;
70757;SDS011;59316;52.964;7.102;2023-10-19T23:11:53;28.60;;;14.27;;
70757;SDS011;59316;52.964;7.102;2023-10-19T23:17:14;34.15;;;14.52;;
70757;SDS011;59316;52.964;7.102;2023-10-19T23:22:36;36.45;;;16.42;;
70757;SDS011;59316;52.964;7.102;2023-10-19T23:27:57;37.88;;;15.43;;
70757;SDS011;59316;52.964;7.102;2023-10-19T23:33:19;35.92;;;16.60;;
70757;SDS011;59316;52.964;7.102;2023-10-19T23:38:40;41.40;;;16.48;;
70757;SDS011;59316;52.964;7.102;2023-10-19T23:44:01;38.90;;;15.93;;
70757;SDS011;59316;52.964;7.102;2023-10-19T23:49:23;38.65;;;16.55;;
70757;SDS011;59316;52.964;7.102;2023-10-19T23:54:44;46.55;;;20.05;;
